Time;durP1;ratioP1;P1;durP2;ratioP2;P2;SDS_P1;SDS_P2;PMS_P1;PMS_P2;Temp;Humidity;BMP_temperature;BMP_pressure;BME280_temperature;BME280_humidity;BME280_pressure;Samples;Min_cycle;Max_cycle;Signal;HPM_P1;HPM_P2
2022/04/28 00:00:21;;;;;;;2.80;2.20;;;;;;;;;;5088391;28;20930;-73
2022/04/28 00:02:49;;;;;;;2.57;2.37;;;;;;;;;;5092711;28;20831;-73
2022/04/28 00:05:16;;;;;;;5.17;2.97;;;;;;;;;;5093217;28;20443;-73
2022/04/28 00:07:44;;;;;;;2.80;2.50;;;;;;;;;;5092184;28;20912;-73
2022/04/28 00:10:13;;;;;;;2.67;2.43;;;;;;;;;;5092907;28;20442;-73
2022/04/28 00:12:40;;;;;;;3.50;2.60;;;;;;;;;;5092477;28;20444;-73
2022/04/28 00:15:07;;;;;;;4.90;2.67;;;;;;;;;;5092965;28;20449;-73
2022/04/28 00:17:34;;;;;;;4.07;2.40;;;;;;;;;;5091934;28;20477;-73
2022/04/28 00:20:02;;;;;;;3.70;2.80;;;;;;;;;;5092672;28;20942;-73
2022/04/28 00:22:29;;;;;;;3.33;3.03;;;;;;;;;;5092526;28;20608;-73
2022/04/28 00:24:57;;;;;;;4.03;2.97;;;;;;;;;;5092870;28;20529;-73
2022/04/28 00:27:26;;;;;;;4.50;3.50;;;;;;;;;;5070925;28;20953;-76
2022/04/28 00:29:53;;;;;;;3.60;3.30;;;;;;;;;;5076333;28;20447;-74
2022/04/28 00:32:20;;;;;;;5.53;2.70;;;;;;;;;;5082282;28;20529;-73
2022/04/28 00:34:47;;;;;;;3.00;2.77;;;;;;;;;;5088681;28;20534;-73
2022/04/28 00:37:15;;;;;;;4.50;3.13;;;;;;;;;;5076441;28;20573;-72
2022/04/28 00:39:42;;;;;;;2.90;2.23;;;;;;;;;;5073332;28;20446;-72
2022/04/28 00:42:10;;;;;;;4.53;3.23;;;;;;;;;;5081880;28;20450;-73
2022/04/28 00:44:39;;;;;;;4.07;2.70;;;;;;;;;;5087853;28;20470;-72
2022/04/28 00:47:07;;;;;;;4.23;3.83;;;;;;;;;;5076873;28;20996;-73
2022/04/28 00:52:16;;;;;;;3.27;2.10;;;;;;;;;;5047199;28;20427;-73
2022/04/28 00:54:43;;;;;;;4.43;2.23;;;;;;;;;;5080879;28;20459;-72
2022/04/28 00:57:11;;;;;;;3.00;2.70;;;;;;;;;;5072335;28;20449;-72
2022/04/28 00:59:39;;;;;;;3.67;2.50;;;;;;;;;;5079201;28;20478;-72
2022/04/28 01:02:07;;;;;;;3.60;2.93;;;;;;;;;;5091468;28;20436;-72
2022/04/28 01:04:34;;;;;;;3.67;2.77;;;;;;;;;;5086932;28;20517;-73
2022/04/28 01:07:01;;;;;;;2.63;2.20;;;;;;;;;;5090820;28;20450;-74
2022/04/28 01:09:29;;;;;;;3.90;3.50;;;;;;;;;;5091632;28;20437;-71
2022/04/28 01:11:56;;;;;;;2.97;2.40;;;;;;;;;;5091859;28;20454;-71
2022/04/28 01:14:23;;;;;;;3.47;2.70;;;;;;;;;;5091585;28;20448;-71
2022/04/28 01:16:52;;;;;;;5.20;3.70;;;;;;;;;;5090732;28;20473;-72
2022/04/28 01:19:19;;;;;;;8.10;2.80;;;;;;;;;;5085565;28;20480;-72
2022/04/28 01:21:47;;;;;;;4.40;2.30;;;;;;;;;;5078732;28;20504;-72
2022/04/28 01:24:15;;;;;;;3.53;2.93;;;;;;;;;;5082082;28;20512;-72
2022/04/28 01:26:42;;;;;;;2.40;2.00;;;;;;;;;;5073772;28;20546;-71
2022/04/28 01:29:09;;;;;;;2.80;2.57;;;;;;;;;;5071482;28;20489;-72
2022/04/28 01:31:37;;;;;;;6.97;3.27;;;;;;;;;;5072876;28;20443;-72
2022/04/28 01:34:04;;;;;;;3.10;2.07;;;;;;;;;;5084700;28;20452;-72
2022/04/28 01:36:31;;;;;;;2.50;2.30;;;;;;;;;;5078976;28;20520;-71
2022/04/28 01:39:00;;;;;;;3.30;2.87;;;;;;;;;;5071013;28;20461;-72
2022/04/28 01:41:27;;;;;;;3.50;2.60;;;;;;;;;;5068940;28;20447;-72
2022/04/28 01:43:56;;;;;;;6.90;2.33;;;;;;;;;;5073576;28;20477;-72
2022/04/28 01:46:23;;;;;;;3.70;2.27;;;;;;;;;;5076313;28;20445;-72
2022/04/28 01:48:51;;;;;;;2.60;2.40;;;;;;;;;;5073857;28;20482;-73
2022/04/28 01:56:55;;;;;;;2.60;2.40;;;;;;;;;;5050366;28;20942;-73
2022/04/28 01:59:22;;;;;;;2.23;1.97;;;;;;;;;;5080399;28;20475;-73
2022/04/28 02:01:49;;;;;;;4.30;3.03;;;;;;;;;;5071107;28;20760;-72
2022/04/28 02:04:16;;;;;;;6.77;2.57;;;;;;;;;;5078529;28;20485;-72
2022/04/28 02:06:43;;;;;;;5.23;2.67;;;;;;;;;;5074390;28;20446;-72
2022/04/28 02:09:12;;;;;;;3.37;2.60;;;;;;;;;;5090774;28;20476;-72
2022/04/28 02:11:39;;;;;;;3.30;2.60;;;;;;;;;;5086557;28;20437;-72
2022/04/28 02:14:06;;;;;;;3.20;2.43;;;;;;;;;;5065573;28;20437;-72
2022/04/28 02:16:33;;;;;;;3.03;2.73;;;;;;;;;;5083411;28;20452;-71
2022/04/28 02:19:01;;;;;;;3.80;3.20;;;;;;;;;;5078922;28;20533;-72
2022/04/28 02:21:28;;;;;;;3.83;2.77;;;;;;;;;;5066982;28;20442;-72
2022/04/28 02:23:55;;;;;;;3.53;2.67;;;;;;;;;;5090591;28;20445;-72
2022/04/28 02:26:24;;;;;;;3.57;2.63;;;;;;;;;;5084405;28;20466;-72
2022/04/28 02:28:51;;;;;;;2.93;2.67;;;;;;;;;;5079654;28;21177;-72
2022/04/28 02:31:18;;;;;;;1.87;1.70;;;;;;;;;;5069737;28;20508;-72
2022/04/28 02:33:46;;;;;;;2.90;2.40;;;;;;;;;;5089416;28;20444;-72
2022/04/28 02:36:13;;;;;;;4.63;2.30;;;;;;;;;;5084773;28;20784;-73
2022/04/28 02:38:40;;;;;;;3.30;2.90;;;;;;;;;;5077236;28;20517;-72
2022/04/28 02:41:07;;;;;;;3.07;2.60;;;;;;;;;;5083738;28;20473;-73
2022/04/28 02:43:36;;;;;;;4.53;2.30;;;;;;;;;;5074199;28;20955;-72
2022/04/28 02:46:03;;;;;;;5.07;2.67;;;;;;;;;;5066790;28;20457;-73
2022/04/28 02:48:30;;;;;;;2.60;2.30;;;;;;;;;;5074296;28;20561;-73
2022/04/28 02:50:57;;;;;;;4.33;2.43;;;;;;;;;;5078531;28;20535;-73
2022/04/28 02:53:25;;;;;;;2.50;1.83;;;;;;;;;;5052307;28;20447;-73
2022/04/28 02:55:52;;;;;;;1.80;1.70;;;;;;;;;;5068271;28;20465;-73
2022/04/28 02:58:19;;;;;;;3.40;2.60;;;;;;;;;;5061133;28;20568;-73
2022/04/28 03:00:47;;;;;;;2.50;1.90;;;;;;;;;;5074407;28;20451;-73
2022/04/28 03:03:15;;;;;;;3.40;2.30;;;;;;;;;;5062348;28;20443;-73
2022/04/28 03:11:11;;;;;;;2.43;1.93;;;;;;;;;;5071305;28;20468;-73
2022/04/28 03:13:39;;;;;;;3.17;2.23;;;;;;;;;;5074700;28;20458;-73
2022/04/28 03:16:07;;;;;;;2.80;2.07;;;;;;;;;;5086271;28;20852;-73
2022/04/28 03:18:35;;;;;;;4.47;2.40;;;;;;;;;;5068437;28;20447;-73
2022/04/28 03:21:02;;;;;;;3.27;2.20;;;;;;;;;;5071971;28;20442;-73
2022/04/28 03:23:29;;;;;;;2.83;1.70;;;;;;;;;;5078396;28;20438;-73
2022/04/28 03:25:56;;;;;;;3.90;3.00;;;;;;;;;;5074659;28;20533;-73
2022/04/28 03:28:24;;;;;;;3.30;2.40;;;;;;;;;;5067279;28;20571;-73
2022/04/28 03:30:52;;;;;;;1.97;1.77;;;;;;;;;;5080567;28;20445;-73
2022/04/28 03:33:20;;;;;;;3.03;2.00;;;;;;;;;;5091542;28;20541;-73
2022/04/28 03:35:47;;;;;;;2.70;1.70;;;;;;;;;;5090131;28;20541;-73
2022/04/28 03:38:14;;;;;;;3.90;2.90;;;;;;;;;;5089644;28;20454;-73
2022/04/28 03:40:42;;;;;;;2.00;1.90;;;;;;;;;;5087757;28;20440;-73
2022/04/28 03:43:09;;;;;;;2.33;1.93;;;;;;;;;;5092372;28;20433;-73
2022/04/28 03:45:37;;;;;;;4.50;2.90;;;;;;;;;;5087386;28;20789;-73
2022/04/28 03:48:04;;;;;;;3.90;2.20;;;;;;;;;;5078706;28;20991;-73
2022/04/28 03:50:33;;;;;;;3.87;2.50;;;;;;;;;;5081297;28;20835;-73
2022/04/28 03:53:01;;;;;;;2.30;2.10;;;;;;;;;;5082109;28;20445;-74
2022/04/28 03:55:28;;;;;;;2.17;1.97;;;;;;;;;;5075818;28;20450;-73
2022/04/28 03:57:55;;;;;;;2.00;1.80;;;;;;;;;;5074672;28;20475;-73
2022/04/28 04:00:23;;;;;;;3.70;2.60;;;;;;;;;;5071489;28;20526;-73
2022/04/28 04:02:50;;;;;;;4.97;3.13;;;;;;;;;;5086656;28;20820;-73
2022/04/28 04:05:17;;;;;;;2.40;2.13;;;;;;;;;;5079810;28;20760;-73
2022/04/28 04:07:46;;;;;;;5.57;5.07;;;;;;;;;;5086432;28;20440;-74
2022/04/28 04:10:13;;;;;;;4.70;1.80;;;;;;;;;;5075286;28;20529;-73
2022/04/28 04:12:41;;;;;;;3.07;2.43;;;;;;;;;;5082191;28;20940;-73
2022/04/28 04:15:08;;;;;;;3.10;2.40;;;;;;;;;;5090055;28;20438;-73
2022/04/28 04:17:42;;;;;;;2.90;1.57;;;;;;;;;;5091855;28;20494;-74
2022/04/28 04:20:10;;;;;;;3.33;2.77;;;;;;;;;;5076353;28;20522;-73
2022/04/28 04:22:38;;;;;;;3.37;2.33;;;;;;;;;;5071908;28;20445;-74
2022/04/28 04:25:07;;;;;;;4.50;2.00;;;;;;;;;;5083864;28;20630;-73
2022/04/28 04:27:34;;;;;;;2.60;2.30;;;;;;;;;;5061531;28;20447;-73
2022/04/28 04:32:17;;;;;;;2.53;2.30;;;;;;;;;;5071680;28;20472;-73
2022/04/28 04:32:49;;;;;;;6.70;2.20;;;;;;;;;;5070196;28;20465;-73
2022/04/28 04:35:16;;;;;;;2.87;2.67;;;;;;;;;;5092488;28;20433;-73
2022/04/28 04:37:43;;;;;;;3.30;3.00;;;;;;;;;;5081224;28;20461;-74
2022/04/28 04:40:13;;;;;;;4.20;3.30;;;;;;;;;;5086497;28;21099;-73
2022/04/28 04:42:40;;;;;;;5.20;2.60;;;;;;;;;;5081212;28;20451;-72
2022/04/28 04:45:08;;;;;;;5.03;3.27;;;;;;;;;;5076978;28;20769;-72
2022/04/28 04:47:36;;;;;;;2.83;2.50;;;;;;;;;;5084109;28;20721;-72
2022/04/28 04:50:03;;;;;;;4.10;1.97;;;;;;;;;;5064689;28;20484;-72
2022/04/28 04:52:30;;;;;;;9.60;3.90;;;;;;;;;;5083640;28;20468;-72
2022/04/28 04:54:58;;;;;;;4.43;3.40;;;;;;;;;;5065335;28;20784;-72
2022/04/28 04:57:27;;;;;;;6.50;3.97;;;;;;;;;;5088032;28;20479;-72
2022/04/28 04:59:54;;;;;;;6.97;2.93;;;;;;;;;;5081063;28;20474;-72
2022/04/28 05:02:23;;;;;;;3.10;2.23;;;;;;;;;;5072310;28;20449;-73
2022/04/28 05:04:50;;;;;;;3.10;2.80;;;;;;;;;;5070006;28;20537;-72
2022/04/28 05:07:17;;;;;;;3.47;2.83;;;;;;;;;;5089396;28;20440;-72
2022/04/28 05:09:44;;;;;;;4.60;3.07;;;;;;;;;;5086725;28;20476;-74
2022/04/28 05:12:12;;;;;;;3.40;2.50;;;;;;;;;;5078419;28;20536;-76
2022/04/28 05:14:40;;;;;;;3.60;2.77;;;;;;;;;;5091242;28;20444;-75
2022/04/28 05:17:07;;;;;;;4.43;2.97;;;;;;;;;;5071174;28;20491;-73
2022/04/28 05:19:35;;;;;;;3.90;3.50;;;;;;;;;;5091146;28;20456;-73
2022/04/28 05:22:02;;;;;;;4.27;3.30;;;;;;;;;;5076297;28;20433;-71
2022/04/28 05:24:29;;;;;;;8.40;3.10;;;;;;;;;;5083031;28;20530;-73
2022/04/28 05:26:56;;;;;;;5.73;2.93;;;;;;;;;;5091162;28;20485;-72
2022/04/28 05:29:23;;;;;;;5.03;3.70;;;;;;;;;;5069898;28;20508;-77
2022/04/28 05:31:52;;;;;;;4.97;3.67;;;;;;;;;;5083107;28;20441;-76
2022/04/28 05:34:19;;;;;;;4.03;3.10;;;;;;;;;;5070761;28;20592;-73
2022/04/28 05:36:47;;;;;;;4.30;3.37;;;;;;;;;;5069150;28;20442;-73
2022/04/28 05:39:14;;;;;;;7.13;4.10;;;;;;;;;;5065155;28;20446;-72
2022/04/28 05:41:41;;;;;;;3.80;2.70;;;;;;;;;;5090665;28;20494;-72
2022/04/28 05:46:54;;;;;;;3.93;3.17;;;;;;;;;;5090354;28;20423;-72
2022/04/28 05:49:22;;;;;;;3.97;2.50;;;;;;;;;;5090896;28;20989;-72
2022/04/28 05:51:52;;;;;;;5.07;4.33;;;;;;;;;;5090560;28;20447;-72
2022/04/28 05:54:20;;;;;;;4.37;3.63;;;;;;;;;;5083049;28;20436;-72
2022/04/28 05:56:47;;;;;;;6.70;3.60;;;;;;;;;;5080771;28;20452;-72
2022/04/28 05:59:14;;;;;;;4.97;3.13;;;;;;;;;;5085721;28;20563;-71
2022/04/28 06:01:41;;;;;;;8.10;4.63;;;;;;;;;;5090530;28;20435;-72
2022/04/28 06:04:10;;;;;;;4.23;3.80;;;;;;;;;;5090976;28;20485;-72
2022/04/28 06:06:37;;;;;;;6.80;4.00;;;;;;;;;;5090074;28;20826;-73
2022/04/28 06:09:05;;;;;;;5.17;3.40;;;;;;;;;;5090662;28;20484;-71
2022/04/28 06:11:32;;;;;;;5.93;4.30;;;;;;;;;;5090378;28;20782;-72
2022/04/28 06:13:59;;;;;;;5.47;4.17;;;;;;;;;;5090847;28;20449;-72
2022/04/28 06:16:26;;;;;;;6.20;4.47;;;;;;;;;;5090651;28;20475;-72
2022/04/28 06:18:53;;;;;;;6.67;4.00;;;;;;;;;;5090294;28;20454;-71
2022/04/28 06:21:22;;;;;;;2.90;2.60;;;;;;;;;;5090927;28;20528;-72
2022/04/28 06:23:49;;;;;;;4.90;3.53;;;;;;;;;;5089958;28;20944;-72
2022/04/28 06:26:16;;;;;;;5.23;4.53;;;;;;;;;;5090358;28;20772;-71
2022/04/28 06:28:43;;;;;;;5.83;3.90;;;;;;;;;;5084394;28;20569;-72
2022/04/28 06:31:10;;;;;;;4.80;3.50;;;;;;;;;;5084169;28;20875;-72
2022/04/28 06:33:41;;;;;;;4.43;3.90;;;;;;;;;;5090152;28;20782;-72
2022/04/28 06:36:08;;;;;;;9.13;4.93;;;;;;;;;;5090313;28;20440;-72
2022/04/28 06:38:37;;;;;;;5.50;3.90;;;;;;;;;;5089865;28;20525;-72
2022/04/28 06:41:04;;;;;;;6.70;4.90;;;;;;;;;;5088964;28;20816;-72
2022/04/28 06:43:32;;;;;;;4.47;4.03;;;;;;;;;;5078501;28;20443;-72
2022/04/28 06:46:14;;;;;;;5.00;4.47;;;;;;;;;;5091169;28;20802;-72
2022/04/28 06:48:41;;;;;;;7.10;4.50;;;;;;;;;;5094359;28;20493;-72
2022/04/28 06:51:08;;;;;;;7.00;5.20;;;;;;;;;;5094355;28;20486;-72
2022/04/28 06:53:38;;;;;;;7.53;3.90;;;;;;;;;;5091946;28;20439;-71
2022/04/28 06:56:06;;;;;;;9.40;5.00;;;;;;;;;;5078846;28;20428;-73
2022/04/28 06:58:34;;;;;;;4.30;3.80;;;;;;;;;;5089214;28;20476;-73
2022/04/28 07:01:01;;;;;;;6.73;5.60;;;;;;;;;;5079543;28;20441;-72
2022/04/28 07:03:28;;;;;;;6.80;4.17;;;;;;;;;;5094024;28;20437;-72
2022/04/28 07:05:55;;;;;;;5.67;4.63;;;;;;;;;;5093402;28;20502;-72
2022/04/28 07:08:23;;;;;;;4.13;3.73;;;;;;;;;;5093948;28;20451;-72
2022/04/28 07:10:51;;;;;;;8.57;5.07;;;;;;;;;;5092899;28;20711;-72
2022/04/28 07:13:19;;;;;;;4.60;3.97;;;;;;;;;;5094306;28;20449;-72
2022/04/28 07:15:46;;;;;;;6.07;3.83;;;;;;;;;;5093564;28;20523;-73
2022/04/28 07:18:13;;;;;;;5.50;3.63;;;;;;;;;;5093973;28;20446;-72
2022/04/28 07:20:40;;;;;;;5.63;3.87;;;;;;;;;;5093957;28;20541;-72
2022/04/28 07:23:07;;;;;;;5.80;3.93;;;;;;;;;;5093619;28;20498;-72
2022/04/28 07:25:35;;;;;;;5.37;4.33;;;;;;;;;;5093484;28;20478;-72
2022/04/28 07:28:03;;;;;;;5.20;3.90;;;;;;;;;;5093143;28;20449;-72
2022/04/28 07:30:30;;;;;;;5.47;3.67;;;;;;;;;;5069701;28;20487;-72
2022/04/28 07:32:58;;;;;;;4.20;3.80;;;;;;;;;;5094100;28;20851;-72
2022/04/28 07:35:25;;;;;;;4.40;3.80;;;;;;;;;;5093877;28;20520;-72
2022/04/28 07:37:52;;;;;;;6.50;4.17;;;;;;;;;;5092796;28;20450;-72
2022/04/28 07:40:20;;;;;;;4.17;3.40;;;;;;;;;;5093904;28;20456;-72
2022/04/28 07:42:47;;;;;;;8.57;4.20;;;;;;;;;;5093010;28;20490;-72
2022/04/28 07:45:15;;;;;;;5.53;4.80;;;;;;;;;;5093360;28;20527;-73
2022/04/28 07:47:43;;;;;;;4.17;3.63;;;;;;;;;;5092523;28;20433;-72
2022/04/28 07:50:11;;;;;;;7.30;3.97;;;;;;;;;;5093428;28;20467;-72
2022/04/28 07:52:38;;;;;;;5.55;4.22;;;;;;;;;;5092774;28;20800;-72
2022/04/28 07:55:06;;;;;;;5.70;3.73;;;;;;;;;;5079101;28;20188;-72
2022/04/28 07:57:33;;;;;;;6.27;3.70;;;;;;;;;;5088645;28;20464;-72
2022/04/28 08:00:01;;;;;;;6.30;3.70;;;;;;;;;;5088669;28;20483;-72
2022/04/28 08:02:29;;;;;;;4.60;3.57;;;;;;;;;;5093518;28;20479;-73
2022/04/28 08:04:56;;;;;;;6.20;5.10;;;;;;;;;;5093298;28;20524;-73
2022/04/28 08:07:24;;;;;;;4.43;3.70;;;;;;;;;;5092460;28;20444;-72
2022/04/28 08:09:51;;;;;;;4.90;3.27;;;;;;;;;;5092386;28;20476;-73
2022/04/28 08:12:18;;;;;;;3.83;3.20;;;;;;;;;;5092796;28;20441;-73
2022/04/28 08:14:45;;;;;;;4.20;3.13;;;;;;;;;;5092546;28;20433;-72
2022/04/28 08:17:13;;;;;;;5.67;3.30;;;;;;;;;;5092311;28;20531;-73
2022/04/28 08:19:41;;;;;;;4.73;2.70;;;;;;;;;;5092533;28;20448;-73
2022/04/28 08:22:08;;;;;;;4.07;3.67;;;;;;;;;;5092945;28;20443;-73
2022/04/28 08:24:36;;;;;;;5.17;3.47;;;;;;;;;;5092245;28;20441;-72
2022/04/28 08:27:03;;;;;;;4.57;3.17;;;;;;;;;;5092148;28;20499;-72
2022/04/28 08:29:30;;;;;;;6.40;2.90;;;;;;;;;;5080076;28;20508;-72
2022/04/28 08:31:57;;;;;;;3.63;2.87;;;;;;;;;;5092518;28;20523;-72
2022/04/28 08:34:24;;;;;;;5.13;3.30;;;;;;;;;;5092569;28;20915;-72
2022/04/28 08:36:53;;;;;;;3.40;3.10;;;;;;;;;;5064938;28;20445;-72
2022/04/28 08:39:20;;;;;;;3.17;2.87;;;;;;;;;;5091937;28;20528;-72
2022/04/28 08:41:48;;;;;;;2.90;2.57;;;;;;;;;;5091986;28;20532;-72
2022/04/28 08:44:16;;;;;;;3.90;2.70;;;;;;;;;;5092406;28;20507;-72
2022/04/28 08:46:53;;;;;;;4.20;3.30;;;;;;;;;;5091064;28;20437;-72
2022/04/28 08:49:22;;;;;;;4.47;3.03;;;;;;;;;;5092242;28;20457;-72
2022/04/28 08:51:51;;;;;;;2.63;2.10;;;;;;;;;;5091830;28;21077;-73
2022/04/28 08:54:19;;;;;;;3.47;2.70;;;;;;;;;;5084471;28;20529;-72
2022/04/28 08:56:46;;;;;;;3.57;2.93;;;;;;;;;;5082299;28;20447;-72
2022/04/28 08:59:14;;;;;;;3.10;2.80;;;;;;;;;;5086386;28;20549;-72
2022/04/28 09:01:41;;;;;;;3.10;2.50;;;;;;;;;;5091892;28;20865;-72
2022/04/28 09:04:10;;;;;;;3.20;2.83;;;;;;;;;;5091778;28;20926;-73
2022/04/28 09:06:38;;;;;;;4.07;3.20;;;;;;;;;;5090585;28;20443;-72
2022/04/28 09:09:06;;;;;;;3.73;2.63;;;;;;;;;;5091508;28;20433;-72
2022/04/28 09:11:37;;;;;;;3.07;2.20;;;;;;;;;;5090996;28;20490;-72
2022/04/28 09:14:12;;;;;;;2.87;2.50;;;;;;;;;;5091427;28;20451;-73
2022/04/28 09:16:43;;;;;;;3.53;2.63;;;;;;;;;;5090776;28;20450;-72
2022/04/28 09:19:11;;;;;;;4.40;2.60;;;;;;;;;;5091430;28;20858;-73
2022/04/28 09:21:39;;;;;;;3.40;3.00;;;;;;;;;;5091010;28;20461;-72
2022/04/28 09:24:07;;;;;;;4.67;3.03;;;;;;;;;;5091235;28;20432;-73
2022/04/28 09:26:35;;;;;;;2.57;2.33;;;;;;;;;;5090057;28;20954;-73
2022/04/28 09:29:03;;;;;;;5.27;2.23;;;;;;;;;;5083228;28;20448;-73
2022/04/28 09:31:31;;;;;;;2.90;2.27;;;;;;;;;;5086994;28;20537;-73
2022/04/28 09:34:04;;;;;;;2.20;1.93;;;;;;;;;;5091420;28;20918;-72
2022/04/28 09:36:31;;;;;;;2.63;2.13;;;;;;;;;;5090467;28;20536;-73
2022/04/28 09:38:59;;;;;;;3.47;2.80;;;;;;;;;;5091286;28;20467;-73
2022/04/28 09:44:12;;;;;;;2.90;2.13;;;;;;;;;;5091319;28;20438;-72
2022/04/28 09:46:43;;;;;;;2.20;1.93;;;;;;;;;;5090105;28;20445;-72
2022/04/28 09:49:11;;;;;;;3.70;2.10;;;;;;;;;;5091050;28;20857;-72
2022/04/28 09:51:39;;;;;;;3.40;1.53;;;;;;;;;;5090389;28;20477;-72
2022/04/28 09:54:07;;;;;;;2.30;1.93;;;;;;;;;;5084512;28;20444;-72
2022/04/28 09:56:35;;;;;;;4.57;2.17;;;;;;;;;;5078892;28;20527;-72
2022/04/28 09:59:05;;;;;;;2.23;1.80;;;;;;;;;;5090782;28;20483;-73
2022/04/28 10:01:33;;;;;;;2.77;1.77;;;;;;;;;;5090424;28;20440;-72
2022/04/28 10:04:00;;;;;;;2.07;1.80;;;;;;;;;;5091142;28;20429;-72
2022/04/28 10:06:31;;;;;;;2.43;1.67;;;;;;;;;;5090714;28;20532;-72
2022/04/28 10:08:58;;;;;;;2.17;1.70;;;;;;;;;;5090796;28;20531;-72
2022/04/28 10:11:26;;;;;;;2.13;1.93;;;;;;;;;;5091183;28;20872;-73
2022/04/28 10:13:54;;;;;;;1.97;1.80;;;;;;;;;;5090816;28;20453;-72
2022/04/28 10:16:22;;;;;;;2.27;2.07;;;;;;;;;;5090599;28;20445;-73
2022/04/28 10:18:53;;;;;;;2.17;1.83;;;;;;;;;;5090552;28;20438;-72
2022/04/28 10:21:34;;;;;;;2.30;1.77;;;;;;;;;;5090576;28;20784;-72
2022/04/28 10:32:47;;;;;;;2.40;1.80;;;;;;;;;;5090906;28;20411;-72
2022/04/28 10:35:16;;;;;;;2.80;2.23;;;;;;;;;;5084802;28;20441;-73
2022/04/28 10:37:45;;;;;;;2.03;1.83;;;;;;;;;;5089547;28;20468;-72
2022/04/28 10:40:15;;;;;;;2.40;2.10;;;;;;;;;;5090449;28;20444;-72
2022/04/28 10:43:03;;;;;;;2.10;1.60;;;;;;;;;;5090150;28;20783;-72
2022/04/28 10:45:41;;;;;;;2.90;2.40;;;;;;;;;;5084049;28;20519;-73
2022/04/28 10:51:14;;;;;;;1.60;1.50;;;;;;;;;;5084992;28;20869;-73
2022/04/28 10:53:58;;;;;;;2.40;1.83;;;;;;;;;;5087127;28;20953;-73
2022/04/28 10:56:26;;;;;;;2.30;1.80;;;;;;;;;;5066450;28;20444;-73
2022/04/28 10:58:57;;;;;;;3.50;2.20;;;;;;;;;;5084457;28;20480;-71
2022/04/28 11:01:28;;;;;;;2.00;1.90;;;;;;;;;;5090871;28;20770;-72
2022/04/28 11:03:56;;;;;;;1.80;1.70;;;;;;;;;;5090186;28;20453;-71
2022/04/28 11:06:30;;;;;;;1.83;1.73;;;;;;;;;;5089957;28;20543;-73
2022/04/28 11:08:57;;;;;;;1.90;1.70;;;;;;;;;;5090180;28;20490;-72
2022/04/28 11:11:29;;;;;;;2.07;1.87;;;;;;;;;;5090692;28;20580;-73
2022/04/28 11:13:57;;;;;;;2.10;1.53;;;;;;;;;;5077007;28;20775;-73
2022/04/28 11:16:25;;;;;;;2.13;1.90;;;;;;;;;;5090082;28;20483;-72
2022/04/28 11:18:53;;;;;;;1.77;1.63;;;;;;;;;;5089430;28;20441;-72
2022/04/28 11:21:20;;;;;;;1.97;1.77;;;;;;;;;;5090201;28;20934;-72
2022/04/28 11:23:49;;;;;;;1.57;1.37;;;;;;;;;;5089587;28;20436;-73
2022/04/28 11:26:16;;;;;;;1.63;1.50;;;;;;;;;;5090083;28;20477;-72
2022/04/28 11:28:44;;;;;;;4.80;1.97;;;;;;;;;;5084074;28;20524;-72
2022/04/28 11:31:15;;;;;;;1.90;1.77;;;;;;;;;;5083636;28;20484;-72
2022/04/28 11:33:43;;;;;;;1.50;1.40;;;;;;;;;;5093086;28;20511;-72
2022/04/28 11:36:21;;;;;;;1.77;1.60;;;;;;;;;;5093302;28;20449;-72
2022/04/28 11:38:54;;;;;;;3.03;2.00;;;;;;;;;;5092758;28;20437;-72
2022/04/28 11:41:33;;;;;;;1.53;1.37;;;;;;;;;;5093556;28;20494;-72
2022/04/28 11:44:01;;;;;;;1.70;1.60;;;;;;;;;;5093505;28;20937;-72
2022/04/28 11:46:28;;;;;;;1.97;1.77;;;;;;;;;;5093109;28;20437;-72
2022/04/28 11:48:55;;;;;;;2.00;1.80;;;;;;;;;;5093314;28;20445;-73
2022/04/28 11:51:24;;;;;;;1.87;1.57;;;;;;;;;;5093061;28;20480;-72
2022/04/28 11:53:54;;;;;;;1.97;1.53;;;;;;;;;;5088727;28;20873;-72
2022/04/28 11:56:21;;;;;;;2.03;1.53;;;;;;;;;;5080465;28;20441;-73
2022/04/28 11:58:49;;;;;;;1.87;1.50;;;;;;;;;;5087348;28;20481;-72
2022/04/28 12:01:17;;;;;;;2.00;1.90;;;;;;;;;;5093069;28;20983;-73
2022/04/28 12:03:51;;;;;;;2.17;1.50;;;;;;;;;;5092515;28;20524;-73
2022/04/28 12:06:19;;;;;;;2.07;1.67;;;;;;;;;;5092619;28;20973;-73
2022/04/28 12:08:49;;;;;;;2.40;1.70;;;;;;;;;;5078286;28;20528;-73
2022/04/28 12:19:34;;;;;;;1.63;1.53;;;;;;;;;;5092133;28;20424;-73
2022/04/28 12:22:06;;;;;;;2.10;1.90;;;;;;;;;;5092597;28;20448;-73
2022/04/28 12:24:34;;;;;;;1.70;1.53;;;;;;;;;;5092188;28;20483;-72
2022/04/28 12:27:08;;;;;;;2.00;1.60;;;;;;;;;;5092335;28;20448;-73
2022/04/28 12:29:48;;;;;;;1.90;1.60;;;;;;;;;;5079421;28;20444;-72
2022/04/28 12:32:15;;;;;;;1.83;1.60;;;;;;;;;;5068315;28;20297;-73
2022/04/28 12:34:43;;;;;;;2.23;1.77;;;;;;;;;;5091258;28;20441;-73
2022/04/28 12:37:10;;;;;;;2.55;1.92;;;;;;;;;;5092150;28;20436;-73
2022/04/28 12:39:57;;;;;;;2.63;1.70;;;;;;;;;;5091284;28;20542;-73
2022/04/28 12:42:26;;;;;;;2.37;1.93;;;;;;;;;;5092035;28;20449;-73
2022/04/28 12:44:54;;;;;;;2.30;2.00;;;;;;;;;;5090423;28;20445;-73
2022/04/28 12:47:21;;;;;;;1.90;1.50;;;;;;;;;;5091664;28;20453;-72
2022/04/28 12:49:49;;;;;;;1.90;1.63;;;;;;;;;;5091165;28;20726;-72
2022/04/28 12:52:30;;;;;;;1.73;1.63;;;;;;;;;;5092400;28;20529;-73
2022/04/28 12:55:03;;;;;;;1.77;1.67;;;;;;;;;;5064885;28;20529;-74
2022/04/28 12:57:32;;;;;;;3.70;1.90;;;;;;;;;;5088378;28;20811;-74
2022/04/28 13:00:02;;;;;;;2.33;2.00;;;;;;;;;;5086999;28;20467;-73
2022/04/28 13:02:30;;;;;;;2.13;1.63;;;;;;;;;;5091466;28;20480;-73
2022/04/28 13:05:08;;;;;;;1.73;1.53;;;;;;;;;;5092653;28;20444;-74
2022/04/28 13:07:35;;;;;;;2.53;1.80;;;;;;;;;;5091180;28;20540;-73
2022/04/28 13:10:04;;;;;;;1.67;1.50;;;;;;;;;;5091863;28;20472;-74
2022/04/28 13:12:32;;;;;;;1.80;1.63;;;;;;;;;;5065396;28;20533;-73
2022/04/28 13:15:01;;;;;;;2.00;1.77;;;;;;;;;;5092122;28;20437;-74
2022/04/28 13:17:29;;;;;;;1.50;1.30;;;;;;;;;;5091683;28;20453;-73
2022/04/28 13:19:56;;;;;;;2.57;1.40;;;;;;;;;;5091908;28;20441;-74
2022/04/28 13:22:23;;;;;;;1.73;1.17;;;;;;;;;;5092068;28;20445;-74
2022/04/28 13:24:50;;;;;;;2.00;1.80;;;;;;;;;;5091160;28;20441;-74
2022/04/28 13:27:18;;;;;;;1.53;1.30;;;;;;;;;;5091584;28;20445;-74
2022/04/28 13:29:46;;;;;;;1.97;1.77;;;;;;;;;;5079309;28;20448;-74
2022/04/28 13:32:13;;;;;;;1.30;1.17;;;;;;;;;;5091739;28;20518;-74
2022/04/28 13:34:41;;;;;;;1.80;1.50;;;;;;;;;;5090550;28;20447;-74
2022/04/28 13:37:08;;;;;;;1.60;1.50;;;;;;;;;;5091234;28;20843;-74
2022/04/28 13:39:36;;;;;;;1.43;1.33;;;;;;;;;;5090610;28;20481;-73
2022/04/28 13:42:03;;;;;;;1.37;1.27;;;;;;;;;;5091559;28;20451;-74
2022/04/28 13:44:31;;;;;;;2.10;1.50;;;;;;;;;;5090644;28;20510;-73
2022/04/28 13:47:00;;;;;;;1.83;1.60;;;;;;;;;;5090999;28;20441;-74
2022/04/28 13:49:28;;;;;;;1.40;1.30;;;;;;;;;;5091592;28;20444;-74
2022/04/28 13:51:56;;;;;;;1.70;1.47;;;;;;;;;;5091505;28;20479;-74
2022/04/28 13:54:23;;;;;;;1.77;1.60;;;;;;;;;;5082504;28;20434;-73
2022/04/28 13:56:50;;;;;;;1.87;1.67;;;;;;;;;;5080934;28;20625;-74
2022/04/28 13:59:18;;;;;;;3.10;1.20;;;;;;;;;;5086087;28;20972;-74
2022/04/28 14:01:46;;;;;;;1.90;1.80;;;;;;;;;;5090692;28;20484;-74
2022/04/28 14:04:17;;;;;;;2.60;1.97;;;;;;;;;;5090858;28;20946;-74
2022/04/28 14:06:44;;;;;;;2.70;1.43;;;;;;;;;;5089985;28;20461;-74
2022/04/28 14:09:11;;;;;;;2.53;1.80;;;;;;;;;;5090644;28;20472;-74
2022/04/28 14:11:38;;;;;;;1.57;1.47;;;;;;;;;;5090217;28;20480;-73
2022/04/28 14:14:06;;;;;;;2.07;1.60;;;;;;;;;;5090863;28;20953;-72
2022/04/28 14:16:34;;;;;;;2.23;1.60;;;;;;;;;;5090074;28;20850;-72
2022/04/28 14:19:02;;;;;;;1.30;1.20;;;;;;;;;;5090937;28;20498;-73
2022/04/28 14:21:31;;;;;;;1.50;1.40;;;;;;;;;;5090753;28;20441;-72
2022/04/28 14:23:59;;;;;;;1.50;1.40;;;;;;;;;;5091156;28;20440;-72
2022/04/28 14:26:26;;;;;;;1.80;1.47;;;;;;;;;;5090408;28;20433;-73
2022/04/28 14:28:53;;;;;;;1.47;1.37;;;;;;;;;;5090048;28;20527;-73
2022/04/28 14:31:20;;;;;;;2.73;1.80;;;;;;;;;;5090556;28;20483;-73
2022/04/28 14:33:48;;;;;;;1.27;1.10;;;;;;;;;;5090090;28;20437;-73
2022/04/28 14:36:15;;;;;;;1.90;1.70;;;;;;;;;;5090149;28;20433;-74
2022/04/28 14:38:43;;;;;;;1.70;1.43;;;;;;;;;;5090124;28;20523;-74
2022/04/28 14:41:10;;;;;;;1.70;1.50;;;;;;;;;;5090441;28;20464;-73
2022/04/28 14:43:38;;;;;;;1.70;1.60;;;;;;;;;;5090259;28;20517;-73
2022/04/28 14:46:05;;;;;;;5.13;1.67;;;23.10;1.00;;;;;;5089919;28;20447;-73
2022/04/28 14:52:19;;;;;;;1.90;1.80;;;25.70;1.00;;;;;;5090058;28;20484;-73
2022/04/28 14:54:05;;;;;;;2.33;1.98;;;25.80;1.00;;;;;;5084727;28;20217;-74
2022/04/28 14:56:32;;;;;;;2.25;2.05;;;25.70;1.00;;;;;;5078238;28;20539;-74
2022/04/28 14:58:59;;;;;;;2.10;1.95;;;25.80;1.00;;;;;;5085062;28;20637;-74
2022/04/28 15:01:26;;;;;;;1.70;1.60;;;26.10;1.00;;;;;;5090398;28;20302;-74
2022/04/28 15:03:53;;;;;;;2.63;2.42;;;26.20;1.00;;;;;;5089339;28;20194;-74
2022/04/28 15:06:21;;;;;;;1.73;1.63;;;25.90;1.00;;;;;;5089917;28;20213;-74
2022/04/28 15:08:48;;;;;;;1.80;1.58;;;26.40;1.00;;;;;;5092839;28;20198;-73
2022/04/28 15:11:18;;;;;;;2.42;1.60;;;26.40;1.00;;;;;;5094130;28;20198;-73
2022/04/28 15:13:44;;;;;;;1.60;1.50;;;26.90;1.00;;;;;;5080281;28;20537;-74
2022/04/28 15:16:11;;;;;;;1.92;1.80;;;26.60;1.00;;;;;;5077205;28;20191;-77
2022/04/28 15:18:38;;;;;;;1.95;1.85;;;26.80;1.00;;;;;;5081036;28;20222;-79
2022/04/28 15:21:06;;;;;;;1.87;1.77;;;26.40;1.00;;;;;;5086044;28;20230;-75
2022/04/28 15:23:33;;;;;;;2.38;2.03;;;26.40;1.00;;;;;;5083346;28;20440;-73
2022/04/28 15:26:00;;;;;;;2.78;2.58;;;26.90;1.00;;;;;;5071954;28;20276;-75